Terminal Aerodrome Forecast
Issued by NWS

Current Version | Previous Version | Text Only | Print | Product List | Glossary Off
Versions: 1 2 3 4 5 6 7 8 9 10 11 12 13 14 15 16 17 18 19 20 21 22 23 24 25 26

000
FTUS41 KPBZ 280900 AAB
TAFHLG
TAF AMD
KHLG 280958Z 2810/2906 28005KT P6SM OVC011
     FM281200 29005KT P6SM BKN015
     FM281500 31013G15KT P6SM VCSH BKN025
     FM282100 31013G18KT P6SM BKN035
     FM290300 30005KT P6SM FEW035=

USA.gov is the U.S. government's official web portal to all federal, state and local government web resources and services.